sensor_id;sensor_type;location;lat;lon;timestamp;P1;durP1;ratioP1;P2;durP2;ratioP2
4460;SDS011;2243;48.812;9.232;2024-02-21T00:02:26;10.90;;;4.60;;
4460;SDS011;2243;48.812;9.232;2024-02-21T00:04:57;6.53;;;4.60;;
4460;SDS011;2243;48.812;9.232;2024-02-21T00:07:28;11.73;;;4.97;;
4460;SDS011;2243;48.812;9.232;2024-02-21T00:09:59;8.80;;;4.63;;
4460;SDS011;2243;48.812;9.232;2024-02-21T00:12:30;9.13;;;5.00;;
4460;SDS011;2243;48.812;9.232;2024-02-21T00:15:01;5.60;;;4.60;;
4460;SDS011;2243;48.812;9.232;2024-02-21T00:17:33;9.40;;;5.40;;
4460;SDS011;2243;48.812;9.232;2024-02-21T00:20:04;7.40;;;5.00;;
4460;SDS011;2243;48.812;9.232;2024-02-21T00:22:36;10.13;;;4.53;;
4460;SDS011;2243;48.812;9.232;2024-02-21T00:25:07;8.97;;;4.57;;
4460;SDS011;2243;48.812;9.232;2024-02-21T00:27:39;7.43;;;4.77;;
4460;SDS011;2243;48.812;9.232;2024-02-21T00:30:10;8.73;;;4.80;;
4460;SDS011;2243;48.812;9.232;2024-02-21T00:32:41;8.07;;;5.30;;
4460;SDS011;2243;48.812;9.232;2024-02-21T00:35:13;8.70;;;4.60;;
4460;SDS011;2243;48.812;9.232;2024-02-21T00:37:45;8.73;;;4.57;;
4460;SDS011;2243;48.812;9.232;2024-02-21T00:40:16;7.67;;;4.53;;
4460;SDS011;2243;48.812;9.232;2024-02-21T00:42:50;12.20;;;5.73;;
4460;SDS011;2243;48.812;9.232;2024-02-21T00:45:21;11.53;;;4.53;;
4460;SDS011;2243;48.812;9.232;2024-02-21T00:47:52;6.00;;;4.43;;
4460;SDS011;2243;48.812;9.232;2024-02-21T00:50:23;12.37;;;4.53;;
4460;SDS011;2243;48.812;9.232;2024-02-21T00:52:54;9.07;;;4.83;;
4460;SDS011;2243;48.812;9.232;2024-02-21T00:55:25;6.17;;;5.23;;
4460;SDS011;2243;48.812;9.232;2024-02-21T00:57:56;6.80;;;4.80;;
4460;SDS011;2243;48.812;9.232;2024-02-21T01:00:27;7.47;;;5.00;;
4460;SDS011;2243;48.812;9.232;2024-02-21T01:02:58;7.13;;;4.60;;
4460;SDS011;2243;48.812;9.232;2024-02-21T01:05:29;8.83;;;4.80;;
4460;SDS011;2243;48.812;9.232;2024-02-21T01:08:00;9.50;;;4.90;;
4460;SDS011;2243;48.812;9.232;2024-02-21T01:10:31;7.90;;;4.23;;
4460;SDS011;2243;48.812;9.232;2024-02-21T01:13:02;6.07;;;4.63;;
4460;SDS011;2243;48.812;9.232;2024-02-21T01:15:33;6.93;;;5.10;;
4460;SDS011;2243;48.812;9.232;2024-02-21T01:18:05;6.97;;;4.33;;
4460;SDS011;2243;48.812;9.232;2024-02-21T01:20:37;6.90;;;4.33;;
4460;SDS011;2243;48.812;9.232;2024-02-21T01:23:07;10.03;;;5.53;;
4460;SDS011;2243;48.812;9.232;2024-02-21T01:25:38;10.17;;;4.90;;
4460;SDS011;2243;48.812;9.232;2024-02-21T01:28:09;9.97;;;4.83;;
4460;SDS011;2243;48.812;9.232;2024-02-21T01:30:40;7.27;;;4.83;;
4460;SDS011;2243;48.812;9.232;2024-02-21T01:33:11;6.10;;;4.27;;
4460;SDS011;2243;48.812;9.232;2024-02-21T01:35:42;6.40;;;4.50;;
4460;SDS011;2243;48.812;9.232;2024-02-21T01:38:14;5.47;;;3.87;;
4460;SDS011;2243;48.812;9.232;2024-02-21T01:40:45;7.73;;;4.43;;
4460;SDS011;2243;48.812;9.232;2024-02-21T01:43:17;5.53;;;4.00;;
4460;SDS011;2243;48.812;9.232;2024-02-21T01:45:51;7.57;;;4.60;;
4460;SDS011;2243;48.812;9.232;2024-02-21T01:48:25;14.47;;;4.50;;
4460;SDS011;2243;48.812;9.232;2024-02-21T01:50:56;12.70;;;4.90;;
4460;SDS011;2243;48.812;9.232;2024-02-21T01:53:29;9.37;;;4.37;;
4460;SDS011;2243;48.812;9.232;2024-02-21T01:56:03;10.43;;;4.70;;
4460;SDS011;2243;48.812;9.232;2024-02-21T01:58:36;5.50;;;4.50;;
4460;SDS011;2243;48.812;9.232;2024-02-21T02:01:10;10.50;;;4.63;;
4460;SDS011;2243;48.812;9.232;2024-02-21T02:03:42;6.37;;;4.70;;
4460;SDS011;2243;48.812;9.232;2024-02-21T02:06:15;5.60;;;4.13;;
4460;SDS011;2243;48.812;9.232;2024-02-21T02:08:47;7.20;;;3.57;;
4460;SDS011;2243;48.812;9.232;2024-02-21T02:11:18;8.90;;;5.23;;
4460;SDS011;2243;48.812;9.232;2024-02-21T02:13:49;7.87;;;4.10;;
4460;SDS011;2243;48.812;9.232;2024-02-21T02:16:20;16.90;;;4.70;;
4460;SDS011;2243;48.812;9.232;2024-02-21T02:18:51;15.60;;;6.03;;
4460;SDS011;2243;48.812;9.232;2024-02-21T02:21:29;6.90;;;4.70;;
4460;SDS011;2243;48.812;9.232;2024-02-21T02:24:03;9.70;;;3.93;;
4460;SDS011;2243;48.812;9.232;2024-02-21T02:26:35;12.23;;;4.87;;
4460;SDS011;2243;48.812;9.232;2024-02-21T02:29:06;9.07;;;4.63;;
4460;SDS011;2243;48.812;9.232;2024-02-21T02:31:37;6.73;;;4.20;;
4460;SDS011;2243;48.812;9.232;2024-02-21T02:34:08;7.93;;;3.97;;
4460;SDS011;2243;48.812;9.232;2024-02-21T02:36:39;6.70;;;6.10;;
4460;SDS011;2243;48.812;9.232;2024-02-21T02:39:10;6.47;;;4.57;;
4460;SDS011;2243;48.812;9.232;2024-02-21T02:41:41;8.37;;;4.33;;
4460;SDS011;2243;48.812;9.232;2024-02-21T02:44:12;12.73;;;4.83;;
4460;SDS011;2243;48.812;9.232;2024-02-21T02:46:43;10.97;;;4.70;;
4460;SDS011;2243;48.812;9.232;2024-02-21T02:49:14;13.17;;;5.20;;
4460;SDS011;2243;48.812;9.232;2024-02-21T02:51:45;12.40;;;4.90;;
4460;SDS011;2243;48.812;9.232;2024-02-21T02:54:16;8.10;;;4.80;;
4460;SDS011;2243;48.812;9.232;2024-02-21T02:56:47;8.73;;;4.47;;
4460;SDS011;2243;48.812;9.232;2024-02-21T02:59:20;8.70;;;5.10;;
4460;SDS011;2243;48.812;9.232;2024-02-21T03:01:51;8.80;;;4.50;;
4460;SDS011;2243;48.812;9.232;2024-02-21T03:04:22;11.17;;;5.23;;
4460;SDS011;2243;48.812;9.232;2024-02-21T03:06:54;5.83;;;5.03;;
4460;SDS011;2243;48.812;9.232;2024-02-21T03:09:25;7.13;;;4.07;;
4460;SDS011;2243;48.812;9.232;2024-02-21T03:11:56;6.67;;;4.10;;
4460;SDS011;2243;48.812;9.232;2024-02-21T03:14:32;11.30;;;5.10;;
4460;SDS011;2243;48.812;9.232;2024-02-21T03:17:03;9.10;;;3.97;;
4460;SDS011;2243;48.812;9.232;2024-02-21T03:19:35;9.13;;;5.43;;
4460;SDS011;2243;48.812;9.232;2024-02-21T03:22:06;9.50;;;4.67;;
4460;SDS011;2243;48.812;9.232;2024-02-21T03:24:37;6.57;;;4.47;;
4460;SDS011;2243;48.812;9.232;2024-02-21T03:27:08;6.03;;;4.60;;
4460;SDS011;2243;48.812;9.232;2024-02-21T03:29:39;8.30;;;4.60;;
4460;SDS011;2243;48.812;9.232;2024-02-21T03:32:10;7.40;;;4.77;;
4460;SDS011;2243;48.812;9.232;2024-02-21T03:34:41;7.03;;;4.30;;
4460;SDS011;2243;48.812;9.232;2024-02-21T03:37:12;11.20;;;4.77;;
4460;SDS011;2243;48.812;9.232;2024-02-21T03:39:44;11.80;;;5.03;;
4460;SDS011;2243;48.812;9.232;2024-02-21T03:42:15;5.50;;;4.30;;
4460;SDS011;2243;48.812;9.232;2024-02-21T03:44:46;10.17;;;5.20;;
4460;SDS011;2243;48.812;9.232;2024-02-21T03:47:17;11.20;;;4.33;;
4460;SDS011;2243;48.812;9.232;2024-02-21T03:49:49;6.60;;;4.07;;
4460;SDS011;2243;48.812;9.232;2024-02-21T03:52:20;6.10;;;4.50;;
4460;SDS011;2243;48.812;9.232;2024-02-21T03:54:51;6.93;;;4.10;;
4460;SDS011;2243;48.812;9.232;2024-02-21T03:57:23;3.73;;;3.43;;
4460;SDS011;2243;48.812;9.232;2024-02-21T03:59:54;14.20;;;4.40;;
4460;SDS011;2243;48.812;9.232;2024-02-21T04:02:25;6.30;;;4.37;;
4460;SDS011;2243;48.812;9.232;2024-02-21T04:04:56;4.27;;;3.87;;
4460;SDS011;2243;48.812;9.232;2024-02-21T04:07:27;7.37;;;4.00;;
4460;SDS011;2243;48.812;9.232;2024-02-21T04:09:58;5.23;;;3.47;;
4460;SDS011;2243;48.812;9.232;2024-02-21T04:12:29;5.17;;;3.07;;
4460;SDS011;2243;48.812;9.232;2024-02-21T04:15:00;6.73;;;3.60;;
4460;SDS011;2243;48.812;9.232;2024-02-21T04:17:31;4.10;;;3.70;;
4460;SDS011;2243;48.812;9.232;2024-02-21T04:20:03;8.40;;;3.57;;
4460;SDS011;2243;48.812;9.232;2024-02-21T04:22:44;9.50;;;3.80;;
4460;SDS011;2243;48.812;9.232;2024-02-21T04:25:16;4.80;;;4.27;;
4460;SDS011;2243;48.812;9.232;2024-02-21T04:27:47;3.73;;;3.23;;
4460;SDS011;2243;48.812;9.232;2024-02-21T04:30:18;3.57;;;3.33;;
4460;SDS011;2243;48.812;9.232;2024-02-21T04:32:49;3.80;;;3.40;;
4460;SDS011;2243;48.812;9.232;2024-02-21T04:35:20;6.40;;;2.87;;
4460;SDS011;2243;48.812;9.232;2024-02-21T04:37:51;3.37;;;2.90;;
4460;SDS011;2243;48.812;9.232;2024-02-21T04:40:22;4.40;;;3.97;;
4460;SDS011;2243;48.812;9.232;2024-02-21T04:42:53;4.93;;;3.50;;
4460;SDS011;2243;48.812;9.232;2024-02-21T04:45:24;6.47;;;3.30;;
4460;SDS011;2243;48.812;9.232;2024-02-21T04:47:55;7.93;;;3.73;;
4460;SDS011;2243;48.812;9.232;2024-02-21T04:50:26;5.73;;;3.80;;
4460;SDS011;2243;48.812;9.232;2024-02-21T04:52:57;7.13;;;4.07;;
4460;SDS011;2243;48.812;9.232;2024-02-21T04:55:29;10.07;;;4.50;;
4460;SDS011;2243;48.812;9.232;2024-02-21T04:58:00;7.57;;;4.40;;
4460;SDS011;2243;48.812;9.232;2024-02-21T05:00:32;4.00;;;3.63;;
4460;SDS011;2243;48.812;9.232;2024-02-21T05:03:04;8.33;;;4.03;;
4460;SDS011;2243;48.812;9.232;2024-02-21T05:05:35;5.77;;;4.00;;
4460;SDS011;2243;48.812;9.232;2024-02-21T05:08:06;6.30;;;3.40;;
4460;SDS011;2243;48.812;9.232;2024-02-21T05:10:38;7.47;;;4.70;;
4460;SDS011;2243;48.812;9.232;2024-02-21T05:13:09;5.33;;;3.10;;
4460;SDS011;2243;48.812;9.232;2024-02-21T05:15:40;4.07;;;3.63;;
4460;SDS011;2243;48.812;9.232;2024-02-21T05:18:11;8.10;;;3.30;;
4460;SDS011;2243;48.812;9.232;2024-02-21T05:20:43;6.07;;;3.53;;
4460;SDS011;2243;48.812;9.232;2024-02-21T05:23:14;4.63;;;3.40;;
4460;SDS011;2243;48.812;9.232;2024-02-21T05:25:45;12.47;;;3.87;;
4460;SDS011;2243;48.812;9.232;2024-02-21T05:28:16;5.20;;;3.73;;
4460;SDS011;2243;48.812;9.232;2024-02-21T05:30:47;8.17;;;3.27;;
4460;SDS011;2243;48.812;9.232;2024-02-21T05:33:18;6.27;;;3.50;;
4460;SDS011;2243;48.812;9.232;2024-02-21T05:35:52;4.00;;;2.87;;
4460;SDS011;2243;48.812;9.232;2024-02-21T05:38:23;6.10;;;4.23;;
4460;SDS011;2243;48.812;9.232;2024-02-21T05:40:54;6.07;;;3.20;;
4460;SDS011;2243;48.812;9.232;2024-02-21T05:43:25;3.47;;;3.17;;
4460;SDS011;2243;48.812;9.232;2024-02-21T05:45:56;6.97;;;2.87;;
4460;SDS011;2243;48.812;9.232;2024-02-21T05:48:27;3.73;;;2.90;;
4460;SDS011;2243;48.812;9.232;2024-02-21T05:50:58;7.20;;;3.63;;
4460;SDS011;2243;48.812;9.232;2024-02-21T05:53:33;7.30;;;3.67;;
4460;SDS011;2243;48.812;9.232;2024-02-21T05:56:05;6.83;;;4.30;;
4460;SDS011;2243;48.812;9.232;2024-02-21T05:58:42;8.17;;;3.67;;
4460;SDS011;2243;48.812;9.232;2024-02-21T06:01:13;3.27;;;2.90;;
4460;SDS011;2243;48.812;9.232;2024-02-21T06:03:44;9.70;;;3.73;;
4460;SDS011;2243;48.812;9.232;2024-02-21T06:06:15;6.13;;;3.10;;
4460;SDS011;2243;48.812;9.232;2024-02-21T06:08:46;5.23;;;4.07;;
4460;SDS011;2243;48.812;9.232;2024-02-21T06:11:17;6.30;;;4.20;;
4460;SDS011;2243;48.812;9.232;2024-02-21T06:13:48;5.20;;;3.73;;
4460;SDS011;2243;48.812;9.232;2024-02-21T06:16:19;7.00;;;4.47;;
4460;SDS011;2243;48.812;9.232;2024-02-21T06:18:51;6.40;;;4.00;;
4460;SDS011;2243;48.812;9.232;2024-02-21T06:21:22;8.57;;;4.90;;
4460;SDS011;2243;48.812;9.232;2024-02-21T06:23:53;6.53;;;3.07;;
4460;SDS011;2243;48.812;9.232;2024-02-21T06:26:24;8.90;;;4.10;;
4460;SDS011;2243;48.812;9.232;2024-02-21T06:28:55;8.83;;;4.37;;
4460;SDS011;2243;48.812;9.232;2024-02-21T06:31:26;5.07;;;4.03;;
4460;SDS011;2243;48.812;9.232;2024-02-21T06:33:58;10.70;;;3.47;;
4460;SDS011;2243;48.812;9.232;2024-02-21T06:36:29;9.20;;;3.73;;
4460;SDS011;2243;48.812;9.232;2024-02-21T06:39:00;3.53;;;3.20;;
4460;SDS011;2243;48.812;9.232;2024-02-21T06:41:31;8.20;;;3.33;;
4460;SDS011;2243;48.812;9.232;2024-02-21T06:44:04;8.23;;;3.63;;
4460;SDS011;2243;48.812;9.232;2024-02-21T06:46:35;7.03;;;3.57;;
4460;SDS011;2243;48.812;9.232;2024-02-21T06:49:06;10.87;;;3.77;;
4460;SDS011;2243;48.812;9.232;2024-02-21T06:51:38;7.70;;;3.80;;
4460;SDS011;2243;48.812;9.232;2024-02-21T06:54:09;3.83;;;3.43;;
4460;SDS011;2243;48.812;9.232;2024-02-21T06:56:40;8.77;;;3.50;;
4460;SDS011;2243;48.812;9.232;2024-02-21T06:59:11;6.30;;;3.20;;
4460;SDS011;2243;48.812;9.232;2024-02-21T07:01:49;4.03;;;3.10;;
4460;SDS011;2243;48.812;9.232;2024-02-21T07:04:23;6.27;;;3.37;;
4460;SDS011;2243;48.812;9.232;2024-02-21T07:06:54;3.77;;;3.47;;
4460;SDS011;2243;48.812;9.232;2024-02-21T07:09:25;4.70;;;3.50;;
4460;SDS011;2243;48.812;9.232;2024-02-21T07:11:59;8.17;;;3.77;;
4460;SDS011;2243;48.812;9.232;2024-02-21T07:14:32;5.93;;;3.83;;
4460;SDS011;2243;48.812;9.232;2024-02-21T07:17:03;4.00;;;3.50;;
4460;SDS011;2243;48.812;9.232;2024-02-21T07:19:34;6.87;;;2.80;;
4460;SDS011;2243;48.812;9.232;2024-02-21T07:22:06;5.40;;;3.60;;
4460;SDS011;2243;48.812;9.232;2024-02-21T07:24:36;4.50;;;3.10;;
4460;SDS011;2243;48.812;9.232;2024-02-21T07:27:08;5.70;;;3.50;;
4460;SDS011;2243;48.812;9.232;2024-02-21T07:29:38;9.40;;;3.80;;
4460;SDS011;2243;48.812;9.232;2024-02-21T07:32:09;13.60;;;4.90;;
4460;SDS011;2243;48.812;9.232;2024-02-21T07:34:40;6.97;;;3.70;;
4460;SDS011;2243;48.812;9.232;2024-02-21T07:37:12;7.70;;;4.10;;
4460;SDS011;2243;48.812;9.232;2024-02-21T07:39:43;5.03;;;3.50;;
4460;SDS011;2243;48.812;9.232;2024-02-21T07:42:13;9.17;;;4.33;;
4460;SDS011;2243;48.812;9.232;2024-02-21T07:44:46;9.83;;;3.60;;
4460;SDS011;2243;48.812;9.232;2024-02-21T07:47:17;6.77;;;3.80;;
4460;SDS011;2243;48.812;9.232;2024-02-21T07:49:49;8.67;;;4.20;;
4460;SDS011;2243;48.812;9.232;2024-02-21T07:52:20;3.93;;;3.50;;
4460;SDS011;2243;48.812;9.232;2024-02-21T07:54:51;8.63;;;4.00;;
4460;SDS011;2243;48.812;9.232;2024-02-21T07:57:22;6.97;;;4.20;;
4460;SDS011;2243;48.812;9.232;2024-02-21T07:59:53;9.80;;;4.30;;
4460;SDS011;2243;48.812;9.232;2024-02-21T08:02:24;13.20;;;4.30;;
4460;SDS011;2243;48.812;9.232;2024-02-21T08:04:55;4.80;;;3.50;;
4460;SDS011;2243;48.812;9.232;2024-02-21T08:07:26;5.80;;;3.30;;
4460;SDS011;2243;48.812;9.232;2024-02-21T08:09:59;6.03;;;3.20;;
4460;SDS011;2243;48.812;9.232;2024-02-21T08:12:30;5.40;;;3.10;;
4460;SDS011;2243;48.812;9.232;2024-02-21T08:15:03;4.80;;;3.33;;
4460;SDS011;2243;48.812;9.232;2024-02-21T08:17:34;6.07;;;2.90;;
4460;SDS011;2243;48.812;9.232;2024-02-21T08:20:05;6.67;;;2.90;;
4460;SDS011;2243;48.812;9.232;2024-02-21T08:22:37;5.07;;;3.17;;
4460;SDS011;2243;48.812;9.232;2024-02-21T08:25:09;6.50;;;3.50;;
4460;SDS011;2243;48.812;9.232;2024-02-21T08:27:40;6.13;;;3.50;;
4460;SDS011;2243;48.812;9.232;2024-02-21T08:30:11;13.83;;;3.53;;
4460;SDS011;2243;48.812;9.232;2024-02-21T08:32:42;9.53;;;3.37;;
4460;SDS011;2243;48.812;9.232;2024-02-21T08:35:13;4.20;;;3.17;;
4460;SDS011;2243;48.812;9.232;2024-02-21T08:37:46;12.10;;;3.73;;
4460;SDS011;2243;48.812;9.232;2024-02-21T08:40:19;7.20;;;3.30;;
4460;SDS011;2243;48.812;9.232;2024-02-21T08:42:53;6.53;;;3.00;;
4460;SDS011;2243;48.812;9.232;2024-02-21T08:45:24;2.53;;;2.33;;
4460;SDS011;2243;48.812;9.232;2024-02-21T08:47:55;5.47;;;2.10;;
4460;SDS011;2243;48.812;9.232;2024-02-21T08:50:26;6.00;;;2.40;;
4460;SDS011;2243;48.812;9.232;2024-02-21T08:52:59;5.70;;;2.77;;
4460;SDS011;2243;48.812;9.232;2024-02-21T08:55:30;5.53;;;2.57;;
4460;SDS011;2243;48.812;9.232;2024-02-21T08:58:01;5.70;;;2.70;;
4460;SDS011;2243;48.812;9.232;2024-02-21T09:00:35;3.47;;;2.20;;
4460;SDS011;2243;48.812;9.232;2024-02-21T09:03:05;6.00;;;3.80;;
4460;SDS011;2243;48.812;9.232;2024-02-21T09:05:37;7.83;;;3.37;;
4460;SDS011;2243;48.812;9.232;2024-02-21T09:08:08;8.67;;;3.07;;
4460;SDS011;2243;48.812;9.232;2024-02-21T09:10:39;6.50;;;2.40;;
4460;SDS011;2243;48.812;9.232;2024-02-21T09:13:11;4.60;;;3.10;;
4460;SDS011;2243;48.812;9.232;2024-02-21T09:15:42;7.73;;;3.80;;
4460;SDS011;2243;48.812;9.232;2024-02-21T09:18:13;6.73;;;2.57;;
4460;SDS011;2243;48.812;9.232;2024-02-21T09:20:45;3.07;;;2.00;;
4460;SDS011;2243;48.812;9.232;2024-02-21T09:23:17;2.43;;;1.57;;
4460;SDS011;2243;48.812;9.232;2024-02-21T09:25:50;12.13;;;2.73;;
4460;SDS011;2243;48.812;9.232;2024-02-21T09:28:21;3.33;;;2.20;;
4460;SDS011;2243;48.812;9.232;2024-02-21T09:30:53;4.07;;;2.97;;
4460;SDS011;2243;48.812;9.232;2024-02-21T09:33:24;2.93;;;2.60;;
4460;SDS011;2243;48.812;9.232;2024-02-21T09:36:02;3.53;;;2.60;;
4460;SDS011;2243;48.812;9.232;2024-02-21T09:38:36;6.40;;;3.27;;
4460;SDS011;2243;48.812;9.232;2024-02-21T09:43:55;8.10;;;3.40;;
4460;SDS011;2243;48.812;9.232;2024-02-21T09:46:40;8.67;;;3.20;;
4460;SDS011;2243;48.812;9.232;2024-02-21T09:49:35;4.90;;;3.40;;
4460;SDS011;2243;48.812;9.232;2024-02-21T09:52:08;3.50;;;3.20;;
4460;SDS011;2243;48.812;9.232;2024-02-21T09:54:44;5.77;;;2.70;;
4460;SDS011;2243;48.812;9.232;2024-02-21T09:57:15;8.03;;;2.80;;
4460;SDS011;2243;48.812;9.232;2024-02-21T09:59:46;3.43;;;3.10;;
4460;SDS011;2243;48.812;9.232;2024-02-21T10:02:18;6.60;;;2.90;;
4460;SDS011;2243;48.812;9.232;2024-02-21T10:04:49;1.80;;;1.70;;
4460;SDS011;2243;48.812;9.232;2024-02-21T10:07:20;2.97;;;1.97;;
4460;SDS011;2243;48.812;9.232;2024-02-21T10:10:01;6.73;;;2.80;;
4460;SDS011;2243;48.812;9.232;2024-02-21T10:12:36;3.83;;;1.90;;
4460;SDS011;2243;48.812;9.232;2024-02-21T10:15:07;2.40;;;1.60;;
4460;SDS011;2243;48.812;9.232;2024-02-21T10:17:38;2.93;;;1.47;;
4460;SDS011;2243;48.812;9.232;2024-02-21T10:20:10;4.40;;;1.87;;
4460;SDS011;2243;48.812;9.232;2024-02-21T10:22:43;5.20;;;2.10;;
4460;SDS011;2243;48.812;9.232;2024-02-21T10:25:14;5.03;;;1.80;;
4460;SDS011;2243;48.812;9.232;2024-02-21T10:27:45;8.53;;;2.70;;
4460;SDS011;2243;48.812;9.232;2024-02-21T10:30:18;5.20;;;1.77;;
4460;SDS011;2243;48.812;9.232;2024-02-21T10:32:51;5.03;;;1.87;;
4460;SDS011;2243;48.812;9.232;2024-02-21T10:35:26;5.97;;;2.07;;
4460;SDS011;2243;48.812;9.232;2024-02-21T10:38:03;3.53;;;1.87;;
4460;SDS011;2243;48.812;9.232;2024-02-21T10:40:35;2.10;;;1.80;;
4460;SDS011;2243;48.812;9.232;2024-02-21T10:43:06;2.97;;;2.10;;
4460;SDS011;2243;48.812;9.232;2024-02-21T10:45:43;5.67;;;1.77;;
4460;SDS011;2243;48.812;9.232;2024-02-21T10:48:14;9.50;;;2.20;;
4460;SDS011;2243;48.812;9.232;2024-02-21T10:59:02;5.60;;;2.73;;
4460;SDS011;2243;48.812;9.232;2024-02-21T11:01:35;2.70;;;1.53;;
4460;SDS011;2243;48.812;9.232;2024-02-21T11:04:07;4.23;;;1.70;;
4460;SDS011;2243;48.812;9.232;2024-02-21T11:06:41;4.07;;;2.10;;
4460;SDS011;2243;48.812;9.232;2024-02-21T11:09:13;2.80;;;1.83;;
4460;SDS011;2243;48.812;9.232;2024-02-21T11:11:44;2.97;;;1.50;;
4460;SDS011;2243;48.812;9.232;2024-02-21T11:14:21;5.03;;;1.93;;
4460;SDS011;2243;48.812;9.232;2024-02-21T11:16:52;4.73;;;2.27;;
4460;SDS011;2243;48.812;9.232;2024-02-21T11:19:27;2.07;;;1.97;;
4460;SDS011;2243;48.812;9.232;2024-02-21T11:22:00;3.80;;;1.40;;
4460;SDS011;2243;48.812;9.232;2024-02-21T11:24:34;3.20;;;1.70;;
4460;SDS011;2243;48.812;9.232;2024-02-21T11:29:45;1.57;;;1.47;;
4460;SDS011;2243;48.812;9.232;2024-02-21T11:32:22;1.83;;;1.40;;
4460;SDS011;2243;48.812;9.232;2024-02-21T11:34:54;1.67;;;1.30;;
4460;SDS011;2243;48.812;9.232;2024-02-21T11:37:37;4.10;;;1.63;;
4460;SDS011;2243;48.812;9.232;2024-02-21T11:40:09;2.00;;;1.63;;
4460;SDS011;2243;48.812;9.232;2024-02-21T11:42:42;3.10;;;1.60;;
4460;SDS011;2243;48.812;9.232;2024-02-21T11:45:14;4.20;;;2.00;;
4460;SDS011;2243;48.812;9.232;2024-02-21T11:47:46;3.77;;;2.00;;
4460;SDS011;2243;48.812;9.232;2024-02-21T11:50:17;3.83;;;1.90;;
4460;SDS011;2243;48.812;9.232;2024-02-21T11:52:51;3.90;;;1.97;;
4460;SDS011;2243;48.812;9.232;2024-02-21T11:55:25;3.27;;;1.90;;
4460;SDS011;2243;48.812;9.232;2024-02-21T11:57:56;2.60;;;1.47;;
4460;SDS011;2243;48.812;9.232;2024-02-21T12:00:27;3.90;;;2.03;;
4460;SDS011;2243;48.812;9.232;2024-02-21T12:02:58;2.50;;;2.03;;
4460;SDS011;2243;48.812;9.232;2024-02-21T12:05:32;3.13;;;1.80;;
4460;SDS011;2243;48.812;9.232;2024-02-21T12:08:04;1.67;;;1.57;;
4460;SDS011;2243;48.812;9.232;2024-02-21T12:10:36;2.17;;;2.00;;
4460;SDS011;2243;48.812;9.232;2024-02-21T12:13:10;2.10;;;1.23;;
4460;SDS011;2243;48.812;9.232;2024-02-21T12:15:41;1.40;;;1.30;;
4460;SDS011;2243;48.812;9.232;2024-02-21T12:18:19;2.40;;;1.40;;
4460;SDS011;2243;48.812;9.232;2024-02-21T12:20:50;3.50;;;1.30;;
4460;SDS011;2243;48.812;9.232;2024-02-21T12:23:21;1.93;;;1.60;;
4460;SDS011;2243;48.812;9.232;2024-02-21T12:25:52;4.37;;;1.80;;
4460;SDS011;2243;48.812;9.232;2024-02-21T12:28:26;6.23;;;1.80;;
4460;SDS011;2243;48.812;9.232;2024-02-21T12:30:57;2.03;;;1.50;;
4460;SDS011;2243;48.812;9.232;2024-02-21T12:33:28;1.70;;;1.60;;
4460;SDS011;2243;48.812;9.232;2024-02-21T12:35:59;3.60;;;1.70;;
4460;SDS011;2243;48.812;9.232;2024-02-21T12:38:30;2.40;;;1.80;;
4460;SDS011;2243;48.812;9.232;2024-02-21T12:41:01;5.43;;;1.93;;
4460;SDS011;2243;48.812;9.232;2024-02-21T12:43:33;1.23;;;1.13;;
4460;SDS011;2243;48.812;9.232;2024-02-21T12:46:04;4.00;;;1.43;;
4460;SDS011;2243;48.812;9.232;2024-02-21T12:48:37;3.43;;;1.30;;
4460;SDS011;2243;48.812;9.232;2024-02-21T12:51:10;1.70;;;1.27;;
4460;SDS011;2243;48.812;9.232;2024-02-21T12:53:41;2.90;;;1.20;;
4460;SDS011;2243;48.812;9.232;2024-02-21T12:56:12;1.40;;;1.30;;
4460;SDS011;2243;48.812;9.232;2024-02-21T12:58:43;2.00;;;1.27;;
4460;SDS011;2243;48.812;9.232;2024-02-21T13:01:15;2.20;;;1.20;;
4460;SDS011;2243;48.812;9.232;2024-02-21T13:03:46;2.60;;;1.20;;
4460;SDS011;2243;48.812;9.232;2024-02-21T13:06:17;2.53;;;1.73;;
4460;SDS011;2243;48.812;9.232;2024-02-21T13:08:50;2.07;;;1.20;;
4460;SDS011;2243;48.812;9.232;2024-02-21T13:11:21;3.63;;;1.53;;
4460;SDS011;2243;48.812;9.232;2024-02-21T13:13:52;1.57;;;1.30;;
4460;SDS011;2243;48.812;9.232;2024-02-21T13:16:24;1.33;;;1.23;;
4460;SDS011;2243;48.812;9.232;2024-02-21T13:18:56;2.80;;;1.60;;
4460;SDS011;2243;48.812;9.232;2024-02-21T13:21:28;2.83;;;0.90;;
4460;SDS011;2243;48.812;9.232;2024-02-21T13:23:58;1.07;;;0.97;;
4460;SDS011;2243;48.812;9.232;2024-02-21T13:26:29;1.20;;;1.20;;
4460;SDS011;2243;48.812;9.232;2024-02-21T13:29:00;1.30;;;1.20;;
4460;SDS011;2243;48.812;9.232;2024-02-21T13:31:32;1.10;;;1.00;;
4460;SDS011;2243;48.812;9.232;2024-02-21T13:34:03;1.63;;;1.53;;
4460;SDS011;2243;48.812;9.232;2024-02-21T13:36:34;5.63;;;1.57;;
4460;SDS011;2243;48.812;9.232;2024-02-21T13:39:05;1.20;;;1.20;;
4460;SDS011;2243;48.812;9.232;2024-02-21T13:41:37;3.67;;;1.57;;
4460;SDS011;2243;48.812;9.232;2024-02-21T13:44:08;2.40;;;1.37;;
4460;SDS011;2243;48.812;9.232;2024-02-21T13:46:43;2.07;;;1.30;;
4460;SDS011;2243;48.812;9.232;2024-02-21T13:49:14;1.97;;;1.27;;
4460;SDS011;2243;48.812;9.232;2024-02-21T13:51:46;1.03;;;0.93;;
4460;SDS011;2243;48.812;9.232;2024-02-21T13:54:17;2.70;;;1.30;;
4460;SDS011;2243;48.812;9.232;2024-02-21T13:56:49;1.30;;;1.13;;
4460;SDS011;2243;48.812;9.232;2024-02-21T13:59:20;2.33;;;1.10;;
4460;SDS011;2243;48.812;9.232;2024-02-21T14:01:51;2.10;;;1.20;;
4460;SDS011;2243;48.812;9.232;2024-02-21T14:04:22;2.13;;;1.20;;
4460;SDS011;2243;48.812;9.232;2024-02-21T14:06:54;1.77;;;0.90;;
4460;SDS011;2243;48.812;9.232;2024-02-21T14:09:25;1.80;;;1.00;;
4460;SDS011;2243;48.812;9.232;2024-02-21T14:11:56;1.10;;;1.00;;
4460;SDS011;2243;48.812;9.232;2024-02-21T14:14:27;1.33;;;1.23;;
4460;SDS011;2243;48.812;9.232;2024-02-21T14:16:58;1.30;;;1.20;;
4460;SDS011;2243;48.812;9.232;2024-02-21T14:19:30;2.83;;;1.30;;
4460;SDS011;2243;48.812;9.232;2024-02-21T14:22:01;4.10;;;1.20;;
4460;SDS011;2243;48.812;9.232;2024-02-21T14:24:32;1.23;;;1.13;;
4460;SDS011;2243;48.812;9.232;2024-02-21T14:27:03;1.73;;;1.17;;
4460;SDS011;2243;48.812;9.232;2024-02-21T14:29:35;3.70;;;1.00;;
4460;SDS011;2243;48.812;9.232;2024-02-21T14:32:06;1.17;;;1.07;;
4460;SDS011;2243;48.812;9.232;2024-02-21T14:34:40;3.57;;;1.47;;
4460;SDS011;2243;48.812;9.232;2024-02-21T14:37:12;2.87;;;1.20;;
4460;SDS011;2243;48.812;9.232;2024-02-21T14:39:44;1.27;;;1.00;;
4460;SDS011;2243;48.812;9.232;2024-02-21T14:42:15;2.03;;;1.17;;
4460;SDS011;2243;48.812;9.232;2024-02-21T14:44:46;6.80;;;1.60;;
4460;SDS011;2243;48.812;9.232;2024-02-21T14:47:17;4.30;;;1.40;;
4460;SDS011;2243;48.812;9.232;2024-02-21T14:49:48;2.30;;;2.07;;
4460;SDS011;2243;48.812;9.232;2024-02-21T14:52:19;1.43;;;1.10;;
4460;SDS011;2243;48.812;9.232;2024-02-21T14:54:51;1.40;;;1.30;;
4460;SDS011;2243;48.812;9.232;2024-02-21T14:57:23;6.60;;;1.30;;
4460;SDS011;2243;48.812;9.232;2024-02-21T14:59:55;1.50;;;1.40;;
4460;SDS011;2243;48.812;9.232;2024-02-21T15:02:30;1.50;;;1.27;;
4460;SDS011;2243;48.812;9.232;2024-02-21T15:05:01;1.63;;;1.43;;
4460;SDS011;2243;48.812;9.232;2024-02-21T15:07:34;1.33;;;1.30;;
4460;SDS011;2243;48.812;9.232;2024-02-21T15:10:05;2.33;;;1.60;;
4460;SDS011;2243;48.812;9.232;2024-02-21T15:12:36;2.87;;;1.33;;
4460;SDS011;2243;48.812;9.232;2024-02-21T15:15:07;1.53;;;1.40;;
4460;SDS011;2243;48.812;9.232;2024-02-21T15:17:39;0.90;;;0.90;;
4460;SDS011;2243;48.812;9.232;2024-02-21T15:20:11;1.53;;;1.07;;
4460;SDS011;2243;48.812;9.232;2024-02-21T15:22:43;2.80;;;1.37;;
4460;SDS011;2243;48.812;9.232;2024-02-21T15:25:14;1.60;;;1.37;;
4460;SDS011;2243;48.812;9.232;2024-02-21T15:27:46;1.87;;;1.67;;
4460;SDS011;2243;48.812;9.232;2024-02-21T15:30:17;3.13;;;1.60;;
4460;SDS011;2243;48.812;9.232;2024-02-21T15:32:48;1.50;;;1.37;;
4460;SDS011;2243;48.812;9.232;2024-02-21T15:35:20;1.00;;;1.00;;
4460;SDS011;2243;48.812;9.232;2024-02-21T15:37:51;1.43;;;1.27;;
4460;SDS011;2243;48.812;9.232;2024-02-21T15:40:22;2.60;;;1.30;;
4460;SDS011;2243;48.812;9.232;2024-02-21T15:42:54;1.43;;;1.20;;
4460;SDS011;2243;48.812;9.232;2024-02-21T15:45:25;1.60;;;1.50;;
4460;SDS011;2243;48.812;9.232;2024-02-21T15:47:56;1.60;;;1.43;;
4460;SDS011;2243;48.812;9.232;2024-02-21T15:50:27;2.30;;;1.67;;
4460;SDS011;2243;48.812;9.232;2024-02-21T15:52:59;2.17;;;1.60;;
4460;SDS011;2243;48.812;9.232;2024-02-21T15:55:32;1.70;;;1.60;;
4460;SDS011;2243;48.812;9.232;2024-02-21T15:58:03;7.00;;;1.80;;